createdAt,value
2022-08-05T00:00:16.454Z,0.00
2022-08-05T00:01:20.986Z,0.00
2022-08-05T00:02:15.957Z,0.00
2022-08-05T00:03:15.531Z,0.00
2022-08-05T00:04:14.882Z,0.00
2022-08-05T00:05:27.151Z,0.00
2022-08-05T00:06:29.320Z,0.00
2022-08-05T00:07:59.425Z,0.00
2022-08-05T00:08:32.901Z,0.00
2022-08-05T00:09:19.737Z,0.00
2022-08-05T00:10:14.799Z,0.00
2022-08-05T00:11:20.505Z,0.00
2022-08-05T00:12:15.914Z,0.00
2022-08-05T00:13:18.533Z,0.00
2022-08-05T00:14:17.066Z,0.00
2022-08-05T00:15:56.384Z,0.00
2022-08-05T00:16:15.776Z,0.00
2022-08-05T00:17:18.781Z,0.00
2022-08-05T00:18:21.706Z,0.00
2022-08-05T00:19:15.716Z,0.00
2022-08-05T00:20:14.735Z,0.00
2022-08-05T00:21:15.699Z,0.00
2022-08-05T00:22:14.682Z,0.00
2022-08-05T00:23:14.667Z,0.00
2022-08-05T00:24:16.338Z,0.00
2022-08-05T00:25:14.660Z,0.00
2022-08-05T00:26:14.647Z,0.00
2022-08-05T00:27:16.874Z,0.00
2022-08-05T00:28:14.603Z,0.00
2022-08-05T00:29:14.611Z,0.00
2022-08-05T00:30:14.585Z,0.00
2022-08-05T00:31:14.583Z,0.00
2022-08-05T00:32:15.377Z,0.00
2022-08-05T00:34:41.985Z,0.00
2022-08-05T00:34:54.613Z,0.00
2022-08-05T00:35:15.545Z,0.00
2022-08-05T00:36:16.400Z,0.00
2022-08-05T00:37:15.540Z,0.00
2022-08-05T00:38:14.494Z,0.00
2022-08-05T00:39:14.528Z,0.00
2022-08-05T00:40:14.537Z,0.00
2022-08-05T00:41:14.508Z,0.00
2022-08-05T00:42:31.675Z,0.00
2022-08-05T00:43:15.715Z,0.00
2022-08-05T00:44:14.496Z,0.00
2022-08-05T00:45:14.613Z,0.00
2022-08-05T00:46:14.619Z,0.00
2022-08-05T00:47:14.459Z,0.00
2022-08-05T00:48:14.385Z,0.00
2022-08-05T00:49:14.677Z,0.00
2022-08-05T00:50:14.423Z,0.00
2022-08-05T00:51:50.978Z,0.00
2022-08-05T00:52:15.413Z,0.00
2022-08-05T00:53:45.465Z,0.00
2022-08-05T00:54:15.420Z,0.00
2022-08-05T00:55:14.939Z,0.00
2022-08-05T00:56:14.450Z,0.00
2022-08-05T00:57:15.724Z,0.00
2022-08-05T00:58:15.622Z,0.00
2022-08-05T00:59:14.370Z,0.00
2022-08-05T01:00:14.541Z,0.00
2022-08-05T01:01:15.064Z,0.00
2022-08-05T01:02:14.301Z,0.00
2022-08-05T01:03:22.750Z,0.00
2022-08-05T01:04:15.827Z,0.00
2022-08-05T01:05:14.325Z,0.00
2022-08-05T01:06:15.350Z,0.00
2022-08-05T01:07:14.331Z,0.00
2022-08-05T01:08:41.929Z,0.00
2022-08-05T01:09:15.252Z,0.00
2022-08-05T01:10:14.185Z,0.00
2022-08-05T01:11:14.236Z,0.00
2022-08-05T01:12:18.477Z,0.00
2022-08-05T01:13:19.444Z,0.00
2022-08-05T01:14:16.917Z,0.00
2022-08-05T01:15:35.421Z,0.00
2022-08-05T01:16:21.109Z,0.00
2022-08-05T01:17:15.772Z,0.00
2022-08-05T01:18:14.134Z,0.00
2022-08-05T01:19:14.483Z,0.00
2022-08-05T01:21:38.098Z,0.00
2022-08-05T01:22:52.080Z,0.00
2022-08-05T01:23:36.276Z,0.00
2022-08-05T01:24:36.206Z,0.00
2022-08-05T01:25:40.690Z,0.00
2022-08-05T01:26:37.263Z,0.00
2022-08-05T01:27:37.197Z,0.00
2022-08-05T01:28:39.429Z,0.00
2022-08-05T01:29:36.314Z,0.00
2022-08-05T01:30:36.269Z,0.00
2022-08-05T01:31:42.757Z,0.00
2022-08-05T01:32:37.309Z,0.00
2022-08-05T01:33:37.356Z,0.00
2022-08-05T01:34:36.173Z,0.00
2022-08-05T01:35:51.030Z,0.00
2022-08-05T01:36:37.097Z,0.00
2022-08-05T01:37:37.206Z,0.00
2022-08-05T01:38:37.253Z,0.00
2022-08-05T01:39:47.023Z,0.00
2022-08-05T01:40:37.981Z,0.00
2022-08-05T01:41:36.260Z,0.00
2022-08-05T01:42:37.009Z,0.00
2022-08-05T01:43:36.200Z,0.00
2022-08-05T01:44:36.020Z,0.00
2022-08-05T01:45:43.155Z,0.00
2022-08-05T01:46:41.942Z,0.00
2022-08-05T01:47:39.596Z,0.00
2022-08-05T01:48:36.966Z,0.00
2022-08-05T01:50:02.020Z,0.00
2022-08-05T01:50:36.882Z,0.00
2022-08-05T01:51:35.936Z,0.00
2022-08-05T01:52:36.098Z,0.00
2022-08-05T01:53:54.621Z,0.00
2022-08-05T01:55:50.057Z,0.00
2022-08-05T01:58:09.943Z,0.00
2022-08-05T01:58:12.772Z,0.00
2022-08-05T01:58:51.422Z,0.00
2022-08-05T01:59:49.958Z,0.00
2022-08-05T02:00:49.948Z,0.00
2022-08-05T02:01:50.008Z,0.00
2022-08-05T02:02:53.693Z,0.00
2022-08-05T02:03:51.101Z,0.00
2022-08-05T02:04:50.235Z,0.00
2022-08-05T02:05:49.912Z,0.00
2022-08-05T02:06:50.025Z,0.00
2022-08-05T02:08:01.118Z,0.00
2022-08-05T02:08:58.193Z,0.00
2022-08-05T02:09:50.975Z,0.00
2022-08-05T02:10:49.885Z,0.00
2022-08-05T02:11:52.320Z,0.00
2022-08-05T02:12:51.048Z,0.00
2022-08-05T02:13:53.971Z,0.00
2022-08-05T02:14:50.098Z,0.00
2022-08-05T02:15:50.323Z,0.00
2022-08-05T02:16:52.795Z,0.00
2022-08-05T02:18:30.964Z,0.00
2022-08-05T02:18:51.054Z,0.00
2022-08-05T02:19:50.002Z,0.00
2022-08-05T02:20:50.901Z,0.00
2022-08-05T02:21:50.644Z,0.00
2022-08-05T02:22:49.807Z,0.00
2022-08-05T02:23:50.122Z,0.00
2022-08-05T02:24:51.393Z,0.00
2022-08-05T02:25:50.639Z,0.00
2022-08-05T02:26:53.996Z,0.00
2022-08-05T02:29:04.031Z,0.00
2022-08-05T02:30:03.793Z,0.00
2022-08-05T02:31:04.126Z,0.00
2022-08-05T02:32:04.716Z,0.00
2022-08-05T02:33:03.997Z,0.00
2022-08-05T02:34:03.816Z,0.00
2022-08-05T02:35:13.375Z,0.00
2022-08-05T02:36:04.779Z,0.00
2022-08-05T02:37:04.342Z,0.00
2022-08-05T02:38:03.956Z,0.00
2022-08-05T02:39:03.882Z,0.00
2022-08-05T02:40:04.881Z,0.00
2022-08-05T02:41:06.389Z,0.00
2022-08-05T02:42:04.724Z,0.00
2022-08-05T02:43:03.742Z,0.00
2022-08-05T02:44:11.192Z,0.00
2022-08-05T02:45:05.482Z,0.00
2022-08-05T02:46:04.070Z,0.00
2022-08-05T02:47:04.142Z,0.00
2022-08-05T02:48:11.471Z,0.00
2022-08-05T02:49:04.656Z,0.00
2022-08-05T02:50:03.644Z,0.00
2022-08-05T02:51:04.487Z,0.00
2022-08-05T02:52:04.864Z,0.00
2022-08-05T02:53:03.713Z,0.00
2022-08-05T02:54:04.662Z,0.00
2022-08-05T02:55:05.484Z,0.00
2022-08-05T02:58:10.336Z,0.00
2022-08-05T02:58:26.742Z,0.00
2022-08-05T02:59:27.068Z,0.00
2022-08-05T03:00:25.341Z,0.00
2022-08-05T03:01:24.238Z,0.00
2022-08-05T03:02:24.131Z,0.00
2022-08-05T03:03:24.083Z,0.00
2022-08-05T03:04:24.083Z,0.00
2022-08-05T03:06:54.182Z,0.00
2022-08-05T03:06:56.733Z,0.00
2022-08-05T03:08:00.893Z,0.00
2022-08-05T03:08:29.575Z,0.00
2022-08-05T03:09:36.153Z,0.00
2022-08-05T03:10:25.253Z,0.00
2022-08-05T03:11:56.678Z,0.00
2022-08-05T03:12:24.984Z,0.00
2022-08-05T03:13:27.614Z,0.00
2022-08-05T03:14:24.987Z,0.00
2022-08-05T03:15:24.437Z,0.00
2022-08-05T03:16:23.941Z,0.00
2022-08-05T03:17:24.147Z,0.00
2022-08-05T03:18:29.903Z,0.00
2022-08-05T03:19:34.526Z,0.00
2022-08-05T03:20:25.100Z,0.00
2022-08-05T03:21:23.879Z,0.00
2022-08-05T03:22:32.414Z,4.00
2022-08-05T03:23:24.871Z,4.00
2022-08-05T03:24:29.334Z,4.00
2022-08-05T03:26:03.765Z,4.00
2022-08-05T03:26:31.682Z,4.00
2022-08-05T03:27:25.101Z,4.00
2022-08-05T03:28:24.807Z,4.00
2022-08-05T03:29:23.829Z,4.00
2022-08-05T03:30:33.523Z,4.00
2022-08-05T03:31:56.162Z,8.00
2022-08-05T03:32:30.955Z,8.00
2022-08-05T03:33:24.768Z,12.00
2022-08-05T03:34:24.744Z,8.00
2022-08-05T03:35:23.737Z,12.00
2022-08-05T03:36:30.193Z,12.00
2022-08-05T03:37:24.951Z,12.00
2022-08-05T03:38:32.887Z,16.00
2022-08-05T03:39:27.264Z,20.00
2022-08-05T03:40:31.226Z,24.00
2022-08-05T03:41:24.693Z,24.00
2022-08-05T03:42:23.629Z,24.00
2022-08-05T03:44:08.881Z,28.00
2022-08-05T03:44:24.642Z,32.00
2022-08-05T03:45:23.837Z,36.00
2022-08-05T03:46:23.795Z,36.00
2022-08-05T03:47:25.082Z,36.00
2022-08-05T03:48:24.569Z,40.00
2022-08-05T03:49:24.223Z,40.00
2022-08-05T03:50:24.551Z,40.00
2022-08-05T03:52:50.201Z,44.00
2022-08-05T03:52:50.418Z,40.00
2022-08-05T03:55:50.505Z,44.00
2022-08-05T03:55:53.093Z,52.00
2022-08-05T03:56:04.164Z,60.00
2022-08-05T03:56:30.677Z,64.00
2022-08-05T03:57:35.024Z,72.00
2022-08-05T03:58:28.935Z,76.00
2022-08-05T03:59:24.519Z,76.00
2022-08-05T04:00:23.454Z,76.00
2022-08-05T04:01:23.487Z,72.00
2022-08-05T04:02:38.646Z,72.00
2022-08-05T04:03:28.527Z,72.00
2022-08-05T04:04:23.414Z,68.00
2022-08-05T04:05:23.440Z,72.00
2022-08-05T04:06:23.386Z,76.00
2022-08-05T04:07:24.904Z,80.00
2022-08-05T04:08:35.026Z,88.00
2022-08-05T04:09:26.431Z,100.00
2022-08-05T04:10:23.381Z,120.00
2022-08-05T04:11:23.341Z,140.00
2022-08-05T04:12:23.651Z,152.00
2022-08-05T04:13:23.313Z,164.00
2022-08-05T04:14:29.978Z,176.00
2022-08-05T04:15:24.645Z,184.00
2022-08-05T04:16:25.005Z,188.00
2022-08-05T04:17:23.544Z,188.00
2022-08-05T04:18:25.569Z,188.00
2022-08-05T04:19:23.354Z,192.00
2022-08-05T04:20:23.412Z,196.00
2022-08-05T04:22:09.257Z,200.00
2022-08-05T04:22:24.221Z,208.00
2022-08-05T04:24:05.416Z,224.00
2022-08-05T04:24:24.193Z,236.00
2022-08-05T04:25:38.439Z,240.00
2022-08-05T04:26:24.185Z,236.00
2022-08-05T04:27:33.129Z,232.00
2022-08-05T04:28:31.064Z,228.00
2022-08-05T04:29:24.133Z,224.00
2022-08-05T04:30:23.128Z,216.00
2022-08-05T04:31:23.094Z,208.00
2022-08-05T04:32:31.152Z,192.00
2022-08-05T04:34:19.341Z,184.00
2022-08-05T04:34:32.455Z,172.00
2022-08-05T04:35:24.077Z,164.00
2022-08-05T04:36:46.471Z,152.00
2022-08-05T04:38:02.127Z,148.00
2022-08-05T04:38:39.417Z,148.00
2022-08-05T04:39:24.228Z,164.00
2022-08-05T04:40:23.038Z,188.00
2022-08-05T04:41:36.610Z,216.00
2022-08-05T04:42:25.409Z,244.00
2022-08-05T04:43:22.986Z,272.00
2022-08-05T04:44:30.143Z,288.00
2022-08-05T04:45:48.625Z,308.00
2022-08-05T04:46:28.034Z,336.00
2022-08-05T04:47:23.143Z,372.00
2022-08-05T04:48:27.470Z,400.00
2022-08-05T04:49:24.702Z,424.00
2022-08-05T04:50:34.320Z,460.00
2022-08-05T04:51:23.883Z,500.00
2022-08-05T04:52:22.906Z,536.00
2022-08-05T04:53:22.863Z,564.00
2022-08-05T04:54:22.865Z,580.00
2022-08-05T04:55:34.020Z,576.00
2022-08-05T04:56:34.261Z,584.00
2022-08-05T04:57:24.246Z,596.00
2022-08-05T04:58:23.816Z,592.00
2022-08-05T04:59:33.541Z,584.00
2022-08-05T05:00:23.920Z,572.00
2022-08-05T05:02:06.022Z,548.00
2022-08-05T05:02:41.081Z,524.00
2022-08-05T05:03:23.839Z,508.00
2022-08-05T05:04:22.850Z,492.00
2022-08-05T05:05:28.565Z,476.00
2022-08-05T05:06:39.594Z,456.00
2022-08-05T05:07:29.248Z,436.00
2022-08-05T05:08:30.242Z,424.00
2022-08-05T05:09:23.698Z,412.00
2022-08-05T05:10:22.687Z,408.00
2022-08-05T05:11:22.678Z,392.00
2022-08-05T05:12:23.666Z,388.00
2022-08-05T05:13:22.680Z,384.00
2022-08-05T05:14:28.145Z,392.00
2022-08-05T05:15:56.251Z,412.00
2022-08-05T05:16:23.631Z,436.00
2022-08-05T05:17:55.409Z,488.00
2022-08-05T05:18:28.267Z,564.00
2022-08-05T05:19:27.333Z,676.00
2022-08-05T05:20:23.859Z,796.00
2022-08-05T05:21:23.566Z,900.00
2022-08-05T05:22:26.091Z,984.00
2022-08-05T05:23:22.551Z,1032.00
2022-08-05T05:24:22.547Z,1072.00
2022-08-05T05:25:40.421Z,1116.00
2022-08-05T05:26:28.370Z,1160.00
2022-08-05T05:27:23.701Z,1204.00
2022-08-05T05:28:22.480Z,1244.00
2022-08-05T05:29:22.494Z,1288.00
2022-08-05T05:30:29.093Z,1324.00
2022-08-05T05:31:23.468Z,1356.00
2022-08-05T05:32:22.466Z,1384.00
2022-08-05T05:33:23.358Z,1392.00
2022-08-05T05:34:27.048Z,1388.00
2022-08-05T05:35:22.451Z,1384.00
2022-08-05T05:36:22.389Z,1388.00
2022-08-05T05:37:22.643Z,1412.00
2022-08-05T05:38:27.582Z,1432.00
2022-08-05T05:39:22.432Z,1448.00
2022-08-05T05:40:22.380Z,1460.00
2022-08-05T05:41:22.339Z,1464.00
2022-08-05T05:42:22.342Z,1472.00
2022-08-05T05:43:54.645Z,1488.00
2022-08-05T05:44:35.545Z,1520.00
2022-08-05T05:45:23.290Z,1560.00
2022-08-05T05:46:22.306Z,1616.00
2022-08-05T05:47:22.408Z,1676.00
2022-08-05T05:48:27.521Z,1724.00
2022-08-05T05:49:22.965Z,1772.00
2022-08-05T05:50:22.290Z,1804.00
2022-08-05T05:51:22.257Z,1824.00
2022-08-05T05:52:28.392Z,1844.00
2022-08-05T05:53:23.382Z,1872.00
2022-08-05T05:54:22.224Z,1916.00
2022-08-05T05:55:23.194Z,1968.00
2022-08-05T05:56:26.108Z,2040.00
2022-08-05T05:57:23.236Z,2112.00
2022-08-05T05:58:22.159Z,2176.00
2022-08-05T05:59:23.164Z,2188.00
2022-08-05T06:00:27.746Z,2168.00
2022-08-05T06:01:23.348Z,2108.00
2022-08-05T06:02:32.793Z,1904.00
2022-08-05T06:03:40.064Z,1540.00
2022-08-05T06:04:23.194Z,1248.00
2022-08-05T06:05:22.120Z,1044.00
2022-08-05T06:06:22.438Z,912.00
2022-08-05T06:07:22.513Z,816.00
2022-08-05T06:08:32.240Z,744.00
2022-08-05T06:09:26.490Z,728.00
2022-08-05T06:10:23.778Z,712.00
2022-08-05T06:11:22.034Z,644.00
2022-08-05T06:12:21.999Z,584.00
2022-08-05T06:13:23.643Z,588.00
2022-08-05T06:14:21.987Z,608.00
2022-08-05T06:15:24.162Z,612.00
2022-08-05T06:16:28.358Z,612.00
2022-08-05T06:17:24.323Z,640.00
2022-08-05T06:18:21.966Z,672.00
2022-08-05T06:19:33.947Z,688.00
2022-08-05T06:20:22.938Z,704.00
2022-08-05T06:21:21.919Z,740.00
2022-08-05T06:22:21.920Z,804.00
2022-08-05T06:23:21.886Z,864.00
2022-08-05T06:24:25.666Z,908.00
2022-08-05T06:25:25.028Z,972.00
2022-08-05T06:26:24.986Z,1060.00
2022-08-05T06:28:12.820Z,1176.00
2022-08-05T06:28:23.215Z,1316.00
2022-08-05T06:29:25.411Z,1496.00
2022-08-05T06:30:22.802Z,1744.00
2022-08-05T06:31:22.603Z,2056.00
2022-08-05T06:32:26.025Z,2288.00
2022-08-05T06:33:33.255Z,2424.00
2022-08-05T06:34:22.782Z,2448.00
2022-08-05T06:36:06.907Z,2464.00
2022-08-05T06:36:25.980Z,2524.00
2022-08-05T06:37:57.746Z,2628.00
2022-08-05T06:38:35.816Z,2868.00
2022-08-05T06:39:24.514Z,3220.00
2022-08-05T06:40:21.702Z,3512.00
2022-08-05T06:41:22.700Z,3700.00
2022-08-05T06:42:21.677Z,3836.00
2022-08-05T06:43:58.457Z,3820.00
2022-08-05T06:44:22.688Z,3592.00
2022-08-05T06:45:44.753Z,3216.00
2022-08-05T06:46:22.671Z,2992.00
2022-08-05T06:48:11.590Z,3004.00
2022-08-05T06:48:54.673Z,3028.00
2022-08-05T06:50:01.128Z,3016.00
2022-08-05T06:50:22.725Z,3016.00
2022-08-05T06:51:26.719Z,3036.00
2022-08-05T06:52:36.655Z,3140.00
2022-08-05T06:53:27.844Z,3516.00
2022-08-05T06:54:25.815Z,4156.00
2022-08-05T06:55:21.526Z,4872.00
2022-08-05T06:56:26.072Z,5472.00
2022-08-05T06:57:57.303Z,5860.00
2022-08-05T06:58:34.922Z,6064.00
2022-08-05T06:59:22.530Z,6252.00
2022-08-05T07:00:24.551Z,6328.00
2022-08-05T07:01:21.589Z,6444.00
2022-08-05T07:02:22.719Z,6716.00
2022-08-05T07:03:21.487Z,7012.00
2022-08-05T07:04:22.460Z,7240.00
2022-08-05T07:05:27.629Z,7388.00
2022-08-05T07:06:22.447Z,7416.00
2022-08-05T07:07:24.028Z,7312.00
2022-08-05T07:08:22.404Z,7300.00
2022-08-05T07:09:21.392Z,7364.00
2022-08-05T07:10:21.472Z,7424.00
2022-08-05T07:11:25.567Z,7480.00
2022-08-05T07:12:21.347Z,7540.00
2022-08-05T07:13:46.388Z,7500.00
2022-08-05T07:14:28.821Z,7400.00
2022-08-05T07:15:34.628Z,7364.00
2022-08-05T07:18:01.614Z,7380.00
2022-08-05T07:18:01.903Z,7320.00
2022-08-05T07:18:29.094Z,7072.00
2022-08-05T07:19:57.991Z,6568.00
2022-08-05T07:20:39.101Z,5988.00
2022-08-05T07:21:25.975Z,5304.00
2022-08-05T07:22:21.247Z,4728.00
2022-08-05T07:23:26.255Z,4504.00
2022-08-05T07:24:22.237Z,4724.00
2022-08-05T07:25:23.554Z,5420.00
2022-08-05T07:26:24.957Z,6432.00
2022-08-05T07:27:21.624Z,7172.00
2022-08-05T07:28:21.173Z,7436.00
2022-08-05T07:30:22.236Z,7484.00
2022-08-05T07:30:29.991Z,7428.00
2022-08-05T07:31:41.024Z,7424.00
2022-08-05T07:32:26.089Z,7412.00
2022-08-05T07:33:21.151Z,7388.00
2022-08-05T07:34:27.440Z,7212.00
2022-08-05T07:36:04.400Z,6976.00
2022-08-05T07:36:22.107Z,6744.00
2022-08-05T07:37:21.068Z,6588.00
2022-08-05T07:38:33.775Z,6472.00
2022-08-05T07:39:50.403Z,6428.00
2022-08-05T07:40:32.151Z,6368.00
2022-08-05T07:42:08.331Z,6188.00
2022-08-05T07:42:33.819Z,5848.00
2022-08-05T07:43:22.035Z,5400.00
2022-08-05T07:44:21.017Z,5020.00
2022-08-05T07:45:56.451Z,4828.00
2022-08-05T07:46:25.256Z,4764.00
2022-08-05T07:47:21.053Z,4756.00
2022-08-05T07:49:02.363Z,4872.00
2022-08-05T07:49:21.981Z,5152.00
2022-08-05T07:50:28.889Z,5568.00
2022-08-05T07:51:23.742Z,5920.00
2022-08-05T07:52:23.847Z,6076.00
2022-08-05T07:53:20.921Z,5940.00
2022-08-05T07:54:20.964Z,5412.00
2022-08-05T07:55:44.510Z,4976.00
2022-08-05T07:57:00.543Z,4848.00
2022-08-05T07:57:57.365Z,4804.00
2022-08-05T07:58:57.503Z,4788.00
2022-08-05T07:59:31.066Z,4696.00
2022-08-05T08:00:21.862Z,4696.00
2022-08-05T08:01:22.206Z,4908.00
2022-08-05T08:02:20.842Z,5108.00
2022-08-05T08:03:21.820Z,5252.00
2022-08-05T08:04:34.309Z,5092.00
2022-08-05T08:05:21.802Z,4960.00
2022-08-05T08:06:20.785Z,4856.00
2022-08-05T08:07:22.666Z,4676.00
2022-08-05T08:08:20.908Z,4624.00
2022-08-05T08:09:20.780Z,4736.00
2022-08-05T08:10:20.909Z,5008.00
2022-08-05T08:11:27.723Z,5260.00
2022-08-05T08:12:32.003Z,5352.00
2022-08-05T08:13:28.816Z,5308.00
2022-08-05T08:14:21.740Z,5328.00
2022-08-05T08:15:37.146Z,5416.00
2022-08-05T08:16:35.082Z,5600.00
2022-08-05T08:17:21.957Z,5964.00
2022-08-05T08:18:21.253Z,6520.00
2022-08-05T08:20:22.726Z,7012.00
2022-08-05T08:20:43.222Z,6884.00
2022-08-05T08:21:21.600Z,6580.00
2022-08-05T08:22:20.587Z,6480.00
2022-08-05T08:24:02.054Z,6564.00
2022-08-05T08:24:21.578Z,6684.00
2022-08-05T08:25:26.762Z,6744.00
2022-08-05T08:26:26.579Z,6784.00
2022-08-05T08:27:22.049Z,6864.00
2022-08-05T08:28:36.697Z,6972.00
2022-08-05T08:30:03.621Z,7104.00
2022-08-05T08:30:33.983Z,7212.00
2022-08-05T08:31:21.500Z,6908.00
2022-08-05T08:32:21.562Z,6420.00
2022-08-05T08:33:21.492Z,5716.00
2022-08-05T08:34:30.867Z,4976.00
2022-08-05T08:35:21.479Z,5096.00
2022-08-05T08:36:38.708Z,5408.00
2022-08-05T08:37:27.730Z,5708.00
2022-08-05T08:38:35.425Z,6192.00
2022-08-05T08:39:21.542Z,6752.00
2022-08-05T08:40:20.439Z,7240.00
2022-08-05T08:41:20.394Z,7560.00
2022-08-05T08:42:38.345Z,7688.00
2022-08-05T08:45:17.052Z,7816.00
2022-08-05T08:45:20.788Z,8076.00
2022-08-05T08:45:27.083Z,8772.00
2022-08-05T08:46:21.344Z,8208.00
2022-08-05T08:47:48.117Z,8296.00
2022-08-05T08:48:42.895Z,7716.00
2022-08-05T08:50:23.287Z,7352.00
2022-08-05T08:50:33.017Z,7264.00
2022-08-05T08:52:02.195Z,7240.00
2022-08-05T08:52:21.351Z,7164.00
2022-08-05T08:53:20.318Z,6680.00
2022-08-05T08:54:22.037Z,6044.00
2022-08-05T08:56:02.136Z,5580.00
2022-08-05T08:56:22.198Z,5244.00
2022-08-05T08:57:42.133Z,5028.00
2022-08-05T08:58:37.223Z,4852.00
2022-08-05T08:59:21.292Z,4736.00
2022-08-05T09:00:20.337Z,4632.00
2022-08-05T09:01:20.340Z,4444.00
2022-08-05T09:02:20.152Z,4212.00
2022-08-05T09:03:20.183Z,3956.00
2022-08-05T09:04:20.279Z,3620.00
2022-08-05T09:05:38.707Z,3204.00
2022-08-05T09:06:24.185Z,2812.00
2022-08-05T09:07:29.184Z,2488.00
2022-08-05T09:08:21.122Z,2268.00
2022-08-05T09:09:21.108Z,2120.00
2022-08-05T09:10:20.121Z,2000.00
2022-08-05T09:11:51.911Z,1884.00
2022-08-05T09:12:27.206Z,1784.00
2022-08-05T09:13:21.042Z,1728.00
2022-08-05T09:14:56.315Z,1724.00
2022-08-05T09:15:21.140Z,1828.00
2022-08-05T09:16:20.225Z,2000.00
2022-08-05T09:17:42.410Z,2208.00
2022-08-05T09:18:21.285Z,2472.00
2022-08-05T09:19:20.288Z,2728.00
2022-08-05T09:20:37.502Z,2896.00
2022-08-05T09:22:21.852Z,3064.00
2022-08-05T09:22:31.969Z,3080.00
2022-08-05T09:23:21.919Z,2772.00
2022-08-05T09:24:19.926Z,2420.00
2022-08-05T09:25:24.441Z,2184.00
2022-08-05T09:26:22.364Z,2152.00
2022-08-05T09:28:06.028Z,2444.00
2022-08-05T09:28:21.327Z,2928.00
2022-08-05T09:29:19.896Z,3276.00
2022-08-05T09:30:23.531Z,3352.00
2022-08-05T09:31:43.406Z,3120.00
2022-08-05T09:32:40.812Z,2940.00
2022-08-05T09:33:20.939Z,2884.00
2022-08-05T09:34:19.837Z,2940.00
2022-08-05T09:35:27.180Z,3036.00
2022-08-05T09:36:20.787Z,3260.00
2022-08-05T09:38:17.046Z,3536.00
2022-08-05T09:38:29.499Z,4012.00
2022-08-05T09:39:22.169Z,4792.00
2022-08-05T09:40:19.883Z,5436.00
2022-08-05T09:41:19.831Z,5416.00
2022-08-05T09:42:23.171Z,5208.00
2022-08-05T09:43:19.869Z,4820.00
2022-08-05T09:44:19.965Z,4768.00
2022-08-05T09:46:07.276Z,4720.00
2022-08-05T09:46:20.824Z,4672.00
2022-08-05T09:47:20.855Z,4468.00
2022-08-05T09:48:19.672Z,3984.00
2022-08-05T09:49:19.999Z,3536.00
2022-08-05T09:50:37.666Z,3228.00
2022-08-05T09:51:20.804Z,3056.00
2022-08-05T09:52:19.709Z,2864.00
2022-08-05T09:53:25.855Z,2520.00
2022-08-05T09:54:29.032Z,2192.00
2022-08-05T09:55:56.261Z,1896.00
2022-08-05T09:56:20.579Z,1980.00
2022-08-05T09:57:20.689Z,2292.00
2022-08-05T09:58:19.806Z,2412.00
2022-08-05T09:59:19.796Z,2492.00
2022-08-05T10:00:19.949Z,2900.00
2022-08-05T10:01:32.140Z,3080.00
2022-08-05T10:02:20.634Z,3192.00
2022-08-05T10:03:20.320Z,3676.00
2022-08-05T10:04:19.626Z,4568.00
2022-08-05T10:05:20.509Z,5028.00
2022-08-05T10:06:19.559Z,4888.00
2022-08-05T10:07:50.392Z,4564.00
2022-08-05T10:08:36.963Z,4160.00
2022-08-05T10:09:25.163Z,4096.00
2022-08-05T10:10:28.342Z,4220.00
2022-08-05T10:11:20.521Z,4376.00
2022-08-05T10:12:33.309Z,4772.00
2022-08-05T10:13:20.409Z,5212.00
2022-08-05T10:14:19.527Z,5792.00
2022-08-05T10:15:20.165Z,6100.00
2022-08-05T10:16:19.378Z,6056.00
2022-08-05T10:17:37.592Z,5552.00
2022-08-05T10:18:20.474Z,5068.00
2022-08-05T10:19:23.553Z,4644.00
2022-08-05T10:20:20.336Z,4928.00
2022-08-05T10:21:19.413Z,5020.00
2022-08-05T10:22:29.513Z,4832.00
2022-08-05T10:23:34.400Z,4908.00
2022-08-05T10:24:22.252Z,5288.00
2022-08-05T10:25:19.522Z,5756.00
2022-08-05T10:26:19.422Z,6304.00
2022-08-05T10:27:20.429Z,6948.00
2022-08-05T10:28:29.595Z,7180.00
2022-08-05T10:30:05.794Z,7260.00
2022-08-05T10:31:20.300Z,8352.00
2022-08-05T10:32:53.122Z,8596.00
2022-08-05T10:32:55.377Z,9092.00
2022-08-05T10:33:20.180Z,8160.00
2022-08-05T10:34:19.275Z,7604.00
2022-08-05T10:35:20.440Z,7232.00
2022-08-05T10:36:23.456Z,7020.00
2022-08-05T10:37:19.252Z,6580.00
2022-08-05T10:38:19.303Z,6372.00
2022-08-05T10:39:25.045Z,6560.00
2022-08-05T10:40:20.555Z,6332.00
2022-08-05T10:41:23.513Z,5748.00
2022-08-05T10:42:22.717Z,5412.00
2022-08-05T10:43:20.431Z,5312.00
2022-08-05T10:44:19.099Z,5172.00
2022-08-05T10:45:23.749Z,4920.00
2022-08-05T10:46:23.916Z,4816.00
2022-08-05T10:47:26.258Z,5120.00
2022-08-05T10:48:31.422Z,5304.00
2022-08-05T10:49:26.994Z,5224.00
2022-08-05T10:50:35.400Z,5140.00
2022-08-05T10:51:22.314Z,5140.00
2022-08-05T10:52:18.974Z,4996.00
2022-08-05T10:53:19.323Z,4704.00
2022-08-05T10:54:28.431Z,4312.00
2022-08-05T10:55:20.070Z,4088.00
2022-08-05T10:56:21.202Z,4172.00
2022-08-05T10:57:20.491Z,4556.00
2022-08-05T10:58:18.915Z,4724.00
2022-08-05T11:00:04.398Z,4992.00
2022-08-05T11:00:22.687Z,5396.00
2022-08-05T11:01:28.417Z,6284.00
2022-08-05T11:02:34.679Z,6180.00
2022-08-05T11:03:25.563Z,6044.00
2022-08-05T11:04:21.344Z,6600.00
2022-08-05T11:05:19.049Z,7604.00
2022-08-05T11:06:18.818Z,8188.00
2022-08-05T11:07:18.825Z,7804.00
2022-08-05T11:08:34.283Z,6880.00
2022-08-05T11:09:24.193Z,5804.00
2022-08-05T11:10:20.335Z,5104.00
2022-08-05T11:11:18.785Z,5028.00
2022-08-05T11:12:18.795Z,5244.00
2022-08-05T11:13:18.756Z,5404.00
2022-08-05T11:14:18.813Z,5368.00
2022-08-05T11:15:20.161Z,5100.00
2022-08-05T11:16:18.821Z,5076.00
2022-08-05T11:17:57.778Z,5204.00
2022-08-05T11:18:19.710Z,5528.00
2022-08-05T11:20:16.683Z,5744.00
2022-08-05T11:20:19.784Z,5732.00
2022-08-05T11:21:18.667Z,5944.00
2022-08-05T11:22:18.819Z,6472.00
2022-08-05T11:23:18.655Z,7100.00
2022-08-05T11:24:30.576Z,7628.00
2022-08-05T11:26:05.499Z,7820.00
2022-08-05T11:26:28.503Z,8072.00
2022-08-05T11:27:19.747Z,8512.00
2022-08-05T11:28:19.021Z,8748.00
2022-08-05T11:29:18.574Z,9356.00
2022-08-05T11:30:18.600Z,8968.00
2022-08-05T11:31:54.242Z,9548.00
2022-08-05T11:32:19.548Z,10584.00
2022-08-05T11:33:21.045Z,11268.00
2022-08-05T11:34:22.727Z,10660.00
2022-08-05T11:35:19.580Z,10264.00
2022-08-05T11:36:34.471Z,10532.00
2022-08-05T11:38:29.748Z,11068.00
2022-08-05T11:38:37.003Z,11300.00
2022-08-05T11:39:19.589Z,11172.00
2022-08-05T11:40:18.515Z,10532.00
2022-08-05T11:41:54.495Z,9924.00
2022-08-05T11:42:19.603Z,10068.00
2022-08-05T11:43:18.586Z,11712.00
2022-08-05T11:44:40.431Z,12560.00
2022-08-05T11:46:15.593Z,11544.00
2022-08-05T11:46:32.178Z,10848.00
2022-08-05T11:47:21.953Z,10160.00
2022-08-05T11:48:18.552Z,9952.00
2022-08-05T11:49:18.397Z,11000.00
2022-08-05T11:50:18.407Z,12552.00
2022-08-05T11:51:43.545Z,14156.00
2022-08-05T11:52:19.650Z,13780.00
2022-08-05T11:53:18.432Z,12208.00
2022-08-05T11:54:18.443Z,11828.00
2022-08-05T11:55:18.343Z,11940.00
2022-08-05T11:56:18.662Z,12776.00
2022-08-05T11:57:25.501Z,13624.00
2022-08-05T11:58:19.551Z,12744.00
2022-08-05T11:59:21.361Z,11868.00
2022-08-05T12:00:18.485Z,11816.00
2022-08-05T12:01:19.116Z,11700.00
2022-08-05T12:02:24.207Z,11152.00
2022-08-05T12:03:28.561Z,10596.00
2022-08-05T12:04:21.216Z,10060.00
2022-08-05T12:05:18.675Z,9748.00
2022-08-05T12:06:18.613Z,9780.00
2022-08-05T12:07:18.182Z,9964.00
2022-08-05T12:08:19.299Z,10140.00
2022-08-05T12:09:19.930Z,10044.00
2022-08-05T12:10:18.134Z,10252.00
2022-08-05T12:11:20.525Z,10660.00
2022-08-05T12:12:18.303Z,10564.00
2022-08-05T12:13:27.703Z,11156.00
2022-08-05T12:14:19.163Z,11256.00
2022-08-05T12:15:18.362Z,11152.00
2022-08-05T12:16:18.166Z,11388.00
2022-08-05T12:18:00.734Z,11500.00
2022-08-05T12:18:24.346Z,11796.00
2022-08-05T12:20:16.846Z,11664.00
2022-08-05T12:20:28.838Z,10948.00
2022-08-05T12:21:19.306Z,10472.00
2022-08-05T12:22:20.105Z,9908.00
2022-08-05T12:23:19.968Z,9616.00
2022-08-05T12:24:18.117Z,9484.00
2022-08-05T12:25:18.021Z,9380.00
2022-08-05T12:26:18.213Z,9508.00
2022-08-05T12:27:32.946Z,9468.00
2022-08-05T12:28:19.020Z,9392.00
2022-08-05T12:29:22.775Z,9324.00
2022-08-05T12:30:18.990Z,9464.00
2022-08-05T12:31:23.726Z,9440.00
2022-08-05T12:32:19.285Z,9616.00
2022-08-05T12:33:27.589Z,9716.00